sensor_id;sensor_type;location;lat;lon;timestamp;temperature;humidity
78212;SHT31;67490;52.086;5.122;2023-12-14T00:02:21;11.12;67.28
78212;SHT31;67490;52.086;5.122;2023-12-14T00:05:06;11.37;65.71
78212;SHT31;67490;52.086;5.122;2023-12-14T00:07:52;10.88;66.24
78212;SHT31;67490;52.086;5.122;2023-12-14T00:10:37;10.82;66.42
78212;SHT31;67490;52.086;5.122;2023-12-14T00:13:21;11.06;66.63
78212;SHT31;67490;52.086;5.122;2023-12-14T00:16:06;10.56;67.48
78212;SHT31;67490;52.086;5.122;2023-12-14T00:18:51;11.06;66.03
78212;SHT31;67490;52.086;5.122;2023-12-14T00:21:36;10.92;65.42
78212;SHT31;67490;52.086;5.122;2023-12-14T00:24:21;11.03;65.92
78212;SHT31;67490;52.086;5.122;2023-12-14T00:27:06;11.31;65.57
78212;SHT31;67490;52.086;5.122;2023-12-14T00:29:50;11.27;65.76
78212;SHT31;67490;52.086;5.122;2023-12-14T00:32:35;11.26;64.69
78212;SHT31;67490;52.086;5.122;2023-12-14T00:35:19;11.12;65.14
78212;SHT31;67490;52.086;5.122;2023-12-14T00:38:04;11.13;64.71
78212;SHT31;67490;52.086;5.122;2023-12-14T00:40:50;11.38;64.46
78212;SHT31;67490;52.086;5.122;2023-12-14T00:43:34;11.41;64.37
78212;SHT31;67490;52.086;5.122;2023-12-14T00:46:19;11.41;64.01
78212;SHT31;67490;52.086;5.122;2023-12-14T00:49:03;11.60;63.91
78212;SHT31;67490;52.086;5.122;2023-12-14T00:51:48;11.35;64.33
78212;SHT31;67490;52.086;5.122;2023-12-14T00:54:32;11.04;65.32
78212;SHT31;67490;52.086;5.122;2023-12-14T00:57:18;10.28;67.02
78212;SHT31;67490;52.086;5.122;2023-12-14T01:00:03;10.42;67.14
78212;SHT31;67490;52.086;5.122;2023-12-14T01:02:48;10.54;67.47
78212;SHT31;67490;52.086;5.122;2023-12-14T01:05:32;10.76;66.42
78212;SHT31;67490;52.086;5.122;2023-12-14T01:08:17;10.35;67.22
78212;SHT31;67490;52.086;5.122;2023-12-14T01:11:01;10.44;67.38
78212;SHT31;67490;52.086;5.122;2023-12-14T01:13:47;10.76;66.84
78212;SHT31;67490;52.086;5.122;2023-12-14T01:16:32;10.95;66.28
78212;SHT31;67490;52.086;5.122;2023-12-14T01:19:16;10.88;65.19
78212;SHT31;67490;52.086;5.122;2023-12-14T01:22:01;10.75;65.94
78212;SHT31;67490;52.086;5.122;2023-12-14T01:24:45;10.99;65.75
78212;SHT31;67490;52.086;5.122;2023-12-14T01:27:30;11.31;64.99
78212;SHT31;67490;52.086;5.122;2023-12-14T01:30:16;11.04;64.89
78212;SHT31;67490;52.086;5.122;2023-12-14T01:33:00;11.13;65.64
78212;SHT31;67490;52.086;5.122;2023-12-14T01:35:45;11.14;65.69
78212;SHT31;67490;52.086;5.122;2023-12-14T01:38:29;11.26;65.42
78212;SHT31;67490;52.086;5.122;2023-12-14T01:41:14;11.19;65.75
78212;SHT31;67490;52.086;5.122;2023-12-14T01:43:58;11.38;65.18
78212;SHT31;67490;52.086;5.122;2023-12-14T01:46:43;11.35;65.05
78212;SHT31;67490;52.086;5.122;2023-12-14T01:49:28;11.28;64.75
78212;SHT31;67490;52.086;5.122;2023-12-14T01:52:12;11.00;65.53
78212;SHT31;67490;52.086;5.122;2023-12-14T01:54:57;10.72;66.46
78212;SHT31;67490;52.086;5.122;2023-12-14T01:57:42;10.77;65.97
78212;SHT31;67490;52.086;5.122;2023-12-14T02:00:36;10.96;65.95
78212;SHT31;67490;52.086;5.122;2023-12-14T02:03:24;11.02;65.51
78212;SHT31;67490;52.086;5.122;2023-12-14T02:06:09;11.43;65.12
78212;SHT31;67490;52.086;5.122;2023-12-14T02:08:53;11.64;64.47
78212;SHT31;67490;52.086;5.122;2023-12-14T02:11:37;11.62;63.48
78212;SHT31;67490;52.086;5.122;2023-12-14T02:14:22;11.23;64.29
78212;SHT31;67490;52.086;5.122;2023-12-14T02:17:07;11.20;64.99
78212;SHT31;67490;52.086;5.122;2023-12-14T02:19:53;11.62;64.09
78212;SHT31;67490;52.086;5.122;2023-12-14T02:22:49;11.62;63.49
78212;SHT31;67490;52.086;5.122;2023-12-14T02:25:37;11.60;63.26
78212;SHT31;67490;52.086;5.122;2023-12-14T02:28:21;11.47;63.93
78212;SHT31;67490;52.086;5.122;2023-12-14T02:31:06;11.67;63.60
78212;SHT31;67490;52.086;5.122;2023-12-14T02:33:50;11.81;63.37
78212;SHT31;67490;52.086;5.122;2023-12-14T02:36:35;11.98;62.87
78212;SHT31;67490;52.086;5.122;2023-12-14T02:39:20;11.30;63.68
78212;SHT31;67490;52.086;5.122;2023-12-14T02:42:05;11.58;64.01
78212;SHT31;67490;52.086;5.122;2023-12-14T02:44:49;11.58;63.96
78212;SHT31;67490;52.086;5.122;2023-12-14T02:47:34;11.77;63.11
78212;SHT31;67490;52.086;5.122;2023-12-14T02:50:19;11.31;64.16
78212;SHT31;67490;52.086;5.122;2023-12-14T02:53:03;11.20;63.97
78212;SHT31;67490;52.086;5.122;2023-12-14T02:55:49;11.16;64.68
78212;SHT31;67490;52.086;5.122;2023-12-14T02:58:34;11.24;64.57
78212;SHT31;67490;52.086;5.122;2023-12-14T03:01:18;11.44;64.98
78212;SHT31;67490;52.086;5.122;2023-12-14T03:04:04;11.22;64.48
78212;SHT31;67490;52.086;5.122;2023-12-14T03:06:49;11.41;64.38
78212;SHT31;67490;52.086;5.122;2023-12-14T03:09:34;10.68;65.81
78212;SHT31;67490;52.086;5.122;2023-12-14T03:12:19;10.76;65.39
78212;SHT31;67490;52.086;5.122;2023-12-14T03:15:05;10.99;65.43
78212;SHT31;67490;52.086;5.122;2023-12-14T03:17:49;11.10;65.51
78212;SHT31;67490;52.086;5.122;2023-12-14T03:20:34;10.97;65.38
78212;SHT31;67490;52.086;5.122;2023-12-14T03:23:18;10.89;65.61
78212;SHT31;67490;52.086;5.122;2023-12-14T03:26:03;10.85;64.89
78212;SHT31;67490;52.086;5.122;2023-12-14T03:28:49;10.54;65.41
78212;SHT31;67490;52.086;5.122;2023-12-14T03:31:33;10.20;66.43
78212;SHT31;67490;52.086;5.122;2023-12-14T03:34:19;10.24;66.54
78212;SHT31;67490;52.086;5.122;2023-12-14T03:37:04;10.58;65.75
78212;SHT31;67490;52.086;5.122;2023-12-14T03:39:49;10.22;65.84
78212;SHT31;67490;52.086;5.122;2023-12-14T03:42:33;9.96;67.62
78212;SHT31;67490;52.086;5.122;2023-12-14T03:45:19;10.31;66.73
78212;SHT31;67490;52.086;5.122;2023-12-14T03:48:04;10.35;65.75
78212;SHT31;67490;52.086;5.122;2023-12-14T03:50:48;10.83;65.44
78212;SHT31;67490;52.086;5.122;2023-12-14T03:53:32;10.72;64.46
78212;SHT31;67490;52.086;5.122;2023-12-14T03:56:17;10.85;64.28
78212;SHT31;67490;52.086;5.122;2023-12-14T03:59:01;10.25;65.94
78212;SHT31;67490;52.086;5.122;2023-12-14T04:01:47;10.27;65.91
78212;SHT31;67490;52.086;5.122;2023-12-14T04:04:32;10.44;65.33
78212;SHT31;67490;52.086;5.122;2023-12-14T04:07:17;10.55;64.55
78212;SHT31;67490;52.086;5.122;2023-12-14T04:10:01;10.49;64.84
78212;SHT31;67490;52.086;5.122;2023-12-14T04:12:46;10.07;65.84
78212;SHT31;67490;52.086;5.122;2023-12-14T04:15:30;10.40;65.08
78212;SHT31;67490;52.086;5.122;2023-12-14T04:18:15;10.77;64.43
78212;SHT31;67490;52.086;5.122;2023-12-14T04:21:00;10.83;63.45
78212;SHT31;67490;52.086;5.122;2023-12-14T04:23:44;10.85;63.46
78212;SHT31;67490;52.086;5.122;2023-12-14T04:26:29;10.79;63.39
78212;SHT31;67490;52.086;5.122;2023-12-14T04:29:14;10.79;63.29
78212;SHT31;67490;52.086;5.122;2023-12-14T04:31:59;10.92;62.50
78212;SHT31;67490;52.086;5.122;2023-12-14T04:34:45;11.19;62.94
78212;SHT31;67490;52.086;5.122;2023-12-14T04:37:29;11.13;62.00
78212;SHT31;67490;52.086;5.122;2023-12-14T04:40:14;11.22;61.84
78212;SHT31;67490;52.086;5.122;2023-12-14T04:42:59;11.41;61.27
78212;SHT31;67490;52.086;5.122;2023-12-14T04:45:43;11.52;61.75
78212;SHT31;67490;52.086;5.122;2023-12-14T04:48:28;11.41;60.74
78212;SHT31;67490;52.086;5.122;2023-12-14T04:51:13;11.58;60.43
78212;SHT31;67490;52.086;5.122;2023-12-14T04:53:58;11.48;60.68
78212;SHT31;67490;52.086;5.122;2023-12-14T04:56:45;11.07;60.90
78212;SHT31;67490;52.086;5.122;2023-12-14T04:59:29;11.37;61.42
78212;SHT31;67490;52.086;5.122;2023-12-14T05:02:14;11.48;61.13
78212;SHT31;67490;52.086;5.122;2023-12-14T05:04:58;11.57;60.90
78212;SHT31;67490;52.086;5.122;2023-12-14T05:07:44;11.60;60.60
78212;SHT31;67490;52.086;5.122;2023-12-14T05:10:28;11.54;59.86
78212;SHT31;67490;52.086;5.122;2023-12-14T05:13:12;11.35;60.33
78212;SHT31;67490;52.086;5.122;2023-12-14T05:15:57;11.31;60.83
78212;SHT31;67490;52.086;5.122;2023-12-14T05:18:42;11.31;60.54
78212;SHT31;67490;52.086;5.122;2023-12-14T05:21:26;11.26;61.13
78212;SHT31;67490;52.086;5.122;2023-12-14T05:24:12;11.43;60.76
78212;SHT31;67490;52.086;5.122;2023-12-14T05:26:57;11.31;60.41
78212;SHT31;67490;52.086;5.122;2023-12-14T05:29:41;11.44;60.72
78212;SHT31;67490;52.086;5.122;2023-12-14T05:32:25;11.57;60.76
78212;SHT31;67490;52.086;5.122;2023-12-14T05:35:10;11.31;59.66
78212;SHT31;67490;52.086;5.122;2023-12-14T05:37:54;11.27;59.83
78212;SHT31;67490;52.086;5.122;2023-12-14T05:40:39;11.30;60.22
78212;SHT31;67490;52.086;5.122;2023-12-14T05:43:24;10.91;60.44
78212;SHT31;67490;52.086;5.122;2023-12-14T05:46:09;10.89;60.92
78212;SHT31;67490;52.086;5.122;2023-12-14T05:48:53;11.09;60.02
78212;SHT31;67490;52.086;5.122;2023-12-14T05:51:37;11.06;59.41
78212;SHT31;67490;52.086;5.122;2023-12-14T05:54:23;11.00;60.08
78212;SHT31;67490;52.086;5.122;2023-12-14T05:57:09;11.09;60.09
78212;SHT31;67490;52.086;5.122;2023-12-14T05:59:56;11.33;60.44
78212;SHT31;67490;52.086;5.122;2023-12-14T06:02:41;11.47;59.91
78212;SHT31;67490;52.086;5.122;2023-12-14T06:05:25;11.51;59.35
78212;SHT31;67490;52.086;5.122;2023-12-14T06:08:10;11.54;58.98
78212;SHT31;67490;52.086;5.122;2023-12-14T06:10:54;11.34;58.21
78212;SHT31;67490;52.086;5.122;2023-12-14T06:13:40;11.22;58.76
78212;SHT31;67490;52.086;5.122;2023-12-14T06:16:24;11.03;59.01
78212;SHT31;67490;52.086;5.122;2023-12-14T06:19:08;11.02;58.85
78212;SHT31;67490;52.086;5.122;2023-12-14T06:21:52;10.96;59.47
78212;SHT31;67490;52.086;5.122;2023-12-14T06:24:36;10.97;59.54
78212;SHT31;67490;52.086;5.122;2023-12-14T06:27:21;10.85;59.69
78212;SHT31;67490;52.086;5.122;2023-12-14T06:30:12;10.85;60.24
78212;SHT31;67490;52.086;5.122;2023-12-14T06:32:56;10.92;60.55
78212;SHT31;67490;52.086;5.122;2023-12-14T06:35:41;10.97;60.40
78212;SHT31;67490;52.086;5.122;2023-12-14T06:38:27;10.79;61.51
78212;SHT31;67490;52.086;5.122;2023-12-14T06:41:18;10.66;61.89
78212;SHT31;67490;52.086;5.122;2023-12-14T06:44:02;10.56;62.19
78212;SHT31;67490;52.086;5.122;2023-12-14T06:46:48;10.24;61.95
78212;SHT31;67490;52.086;5.122;2023-12-14T06:49:33;10.25;61.94
78212;SHT31;67490;52.086;5.122;2023-12-14T06:52:17;10.55;64.50
78212;SHT31;67490;52.086;5.122;2023-12-14T06:55:02;10.37;61.50
78212;SHT31;67490;52.086;5.122;2023-12-14T06:57:46;10.30;60.99
78212;SHT31;67490;52.086;5.122;2023-12-14T07:00:31;9.49;62.60
78212;SHT31;67490;52.086;5.122;2023-12-14T07:03:17;10.20;62.69
78212;SHT31;67490;52.086;5.122;2023-12-14T07:06:01;10.66;61.96
78212;SHT31;67490;52.086;5.122;2023-12-14T07:08:45;10.76;60.08
78212;SHT31;67490;52.086;5.122;2023-12-14T07:11:31;10.76;59.03
78212;SHT31;67490;52.086;5.122;2023-12-14T07:14:16;10.65;59.39
78212;SHT31;67490;52.086;5.122;2023-12-14T07:17:00;10.72;59.69
78212;SHT31;67490;52.086;5.122;2023-12-14T07:19:46;10.44;59.40
78212;SHT31;67490;52.086;5.122;2023-12-14T07:22:30;10.27;58.83
78212;SHT31;67490;52.086;5.122;2023-12-14T07:25:15;10.03;59.88
78212;SHT31;67490;52.086;5.122;2023-12-14T07:27:59;9.93;60.89
78212;SHT31;67490;52.086;5.122;2023-12-14T07:30:44;9.45;61.28
78212;SHT31;67490;52.086;5.122;2023-12-14T07:33:29;9.31;62.20
78212;SHT31;67490;52.086;5.122;2023-12-14T07:36:14;9.74;61.59
78212;SHT31;67490;52.086;5.122;2023-12-14T07:38:59;10.11;60.63
78212;SHT31;67490;52.086;5.122;2023-12-14T07:41:45;9.63;61.06
78212;SHT31;67490;52.086;5.122;2023-12-14T07:44:30;9.79;61.13
78212;SHT31;67490;52.086;5.122;2023-12-14T07:47:15;9.97;61.22
78212;SHT31;67490;52.086;5.122;2023-12-14T07:49:59;10.00;59.78
78212;SHT31;67490;52.086;5.122;2023-12-14T07:52:45;9.60;60.78
78212;SHT31;67490;52.086;5.122;2023-12-14T07:55:30;9.46;61.72
78212;SHT31;67490;52.086;5.122;2023-12-14T07:58:14;9.55;61.40
78212;SHT31;67490;52.086;5.122;2023-12-14T08:00:58;10.07;61.27
78212;SHT31;67490;52.086;5.122;2023-12-14T08:03:43;10.54;62.52
78212;SHT31;67490;52.086;5.122;2023-12-14T08:06:27;10.77;59.82
78212;SHT31;67490;52.086;5.122;2023-12-14T08:09:13;10.92;60.44
78212;SHT31;67490;52.086;5.122;2023-12-14T08:11:58;10.65;57.36
78212;SHT31;67490;52.086;5.122;2023-12-14T08:14:42;10.24;59.09
78212;SHT31;67490;52.086;5.122;2023-12-14T08:17:28;10.42;59.01
78212;SHT31;67490;52.086;5.122;2023-12-14T08:20:12;10.79;59.66
78212;SHT31;67490;52.086;5.122;2023-12-14T08:22:57;10.89;59.04
78212;SHT31;67490;52.086;5.122;2023-12-14T08:25:43;10.89;58.90
78212;SHT31;67490;52.086;5.122;2023-12-14T08:28:27;11.12;59.29
78212;SHT31;67490;52.086;5.122;2023-12-14T08:31:12;11.13;58.09
78212;SHT31;67490;52.086;5.122;2023-12-14T08:33:56;11.26;58.35
78212;SHT31;67490;52.086;5.122;2023-12-14T08:36:41;11.45;58.15
78212;SHT31;67490;52.086;5.122;2023-12-14T08:39:25;11.60;57.19
78212;SHT31;67490;52.086;5.122;2023-12-14T08:42:12;11.27;56.16
78212;SHT31;67490;52.086;5.122;2023-12-14T08:44:56;11.38;57.03
78212;SHT31;67490;52.086;5.122;2023-12-14T08:47:41;11.26;56.52
78212;SHT31;67490;52.086;5.122;2023-12-14T08:50:25;10.76;57.62
78212;SHT31;67490;52.086;5.122;2023-12-14T08:53:12;10.55;58.39
78212;SHT31;67490;52.086;5.122;2023-12-14T08:55:57;10.49;58.59
78212;SHT31;67490;52.086;5.122;2023-12-14T08:58:43;10.86;60.09
78212;SHT31;67490;52.086;5.122;2023-12-14T09:01:27;10.99;58.17
78212;SHT31;67490;52.086;5.122;2023-12-14T09:04:11;11.12;59.59
78212;SHT31;67490;52.086;5.122;2023-12-14T09:06:56;11.20;59.11
78212;SHT31;67490;52.086;5.122;2023-12-14T09:09:41;11.09;58.74
78212;SHT31;67490;52.086;5.122;2023-12-14T09:12:26;11.28;63.83
78212;SHT31;67490;52.086;5.122;2023-12-14T09:15:12;11.09;58.01
78212;SHT31;67490;52.086;5.122;2023-12-14T09:17:56;11.13;57.96
78212;SHT31;67490;52.086;5.122;2023-12-14T09:20:41;11.44;58.32
78212;SHT31;67490;52.086;5.122;2023-12-14T09:23:27;11.35;56.69
78212;SHT31;67490;52.086;5.122;2023-12-14T09:26:11;11.50;57.03
78212;SHT31;67490;52.086;5.122;2023-12-14T09:28:55;11.60;55.71
78212;SHT31;67490;52.086;5.122;2023-12-14T09:31:42;11.74;56.38
78212;SHT31;67490;52.086;5.122;2023-12-14T09:34:27;11.50;55.35
78212;SHT31;67490;52.086;5.122;2023-12-14T09:37:11;11.28;55.69
78212;SHT31;67490;52.086;5.122;2023-12-14T09:39:58;11.19;56.50
78212;SHT31;67490;52.086;5.122;2023-12-14T09:42:43;11.43;56.57
78212;SHT31;67490;52.086;5.122;2023-12-14T09:45:28;11.58;55.04
78212;SHT31;67490;52.086;5.122;2023-12-14T09:48:16;11.06;56.21
78212;SHT31;67490;52.086;5.122;2023-12-14T09:51:00;10.93;56.52
78212;SHT31;67490;52.086;5.122;2023-12-14T09:53:44;10.96;56.08
78212;SHT31;67490;52.086;5.122;2023-12-14T09:56:29;11.17;56.72
78212;SHT31;67490;52.086;5.122;2023-12-14T09:59:14;11.28;56.15
78212;SHT31;67490;52.086;5.122;2023-12-14T10:02:10;11.51;55.76
78212;SHT31;67490;52.086;5.122;2023-12-14T10:04:56;11.71;55.07
78212;SHT31;67490;52.086;5.122;2023-12-14T10:07:42;11.72;54.05
78212;SHT31;67490;52.086;5.122;2023-12-14T10:10:29;11.37;55.15
78212;SHT31;67490;52.086;5.122;2023-12-14T10:13:13;11.44;55.92
78212;SHT31;67490;52.086;5.122;2023-12-14T10:15:59;11.50;54.50
78212;SHT31;67490;52.086;5.122;2023-12-14T10:18:43;11.44;55.32
78212;SHT31;67490;52.086;5.122;2023-12-14T10:21:29;11.62;55.60
78212;SHT31;67490;52.086;5.122;2023-12-14T10:24:13;11.77;54.53
78212;SHT31;67490;52.086;5.122;2023-12-14T10:26:58;11.83;55.24
78212;SHT31;67490;52.086;5.122;2023-12-14T10:29:42;11.98;54.58
78212;SHT31;67490;52.086;5.122;2023-12-14T10:32:29;11.91;53.71
78212;SHT31;67490;52.086;5.122;2023-12-14T10:35:14;11.93;54.27
78212;SHT31;67490;52.086;5.122;2023-12-14T10:38:04;12.08;54.66
78212;SHT31;67490;52.086;5.122;2023-12-14T10:40:49;12.28;54.20
78212;SHT31;67490;52.086;5.122;2023-12-14T10:43:36;12.37;53.30
78212;SHT31;67490;52.086;5.122;2023-12-14T10:46:21;12.42;53.82
78212;SHT31;67490;52.086;5.122;2023-12-14T10:49:05;12.42;53.51
78212;SHT31;67490;52.086;5.122;2023-12-14T10:51:53;12.47;54.70
78212;SHT31;67490;52.086;5.122;2023-12-14T10:54:42;12.57;53.99
78212;SHT31;67490;52.086;5.122;2023-12-14T10:57:28;12.65;53.18
78212;SHT31;67490;52.086;5.122;2023-12-14T11:00:13;12.46;51.49
78212;SHT31;67490;52.086;5.122;2023-12-14T11:03:00;12.37;53.00
78212;SHT31;67490;52.086;5.122;2023-12-14T11:05:44;12.29;53.25
78212;SHT31;67490;52.086;5.122;2023-12-14T11:08:29;12.36;53.20
78212;SHT31;67490;52.086;5.122;2023-12-14T11:11:15;12.42;52.84
78212;SHT31;67490;52.086;5.122;2023-12-14T11:14:08;12.44;52.86
78212;SHT31;67490;52.086;5.122;2023-12-14T11:16:55;12.60;53.89
78212;SHT31;67490;52.086;5.122;2023-12-14T11:19:40;12.57;52.92
78212;SHT31;67490;52.086;5.122;2023-12-14T11:22:27;12.57;53.80
78212;SHT31;67490;52.086;5.122;2023-12-14T11:25:11;12.63;53.62
78212;SHT31;67490;52.086;5.122;2023-12-14T11:28:03;12.47;53.46
78212;SHT31;67490;52.086;5.122;2023-12-14T11:30:48;12.49;52.89
78212;SHT31;67490;52.086;5.122;2023-12-14T11:33:33;12.44;52.99
78212;SHT31;67490;52.086;5.122;2023-12-14T11:36:17;12.53;53.46
78212;SHT31;67490;52.086;5.122;2023-12-14T11:39:02;12.60;53.68
78212;SHT31;67490;52.086;5.122;2023-12-14T11:41:59;12.68;54.12
78212;SHT31;67490;52.086;5.122;2023-12-14T11:44:44;12.80;53.93
78212;SHT31;67490;52.086;5.122;2023-12-14T11:47:29;12.87;53.51
78212;SHT31;67490;52.086;5.122;2023-12-14T11:50:13;12.90;53.65
78212;SHT31;67490;52.086;5.122;2023-12-14T11:52:58;12.91;53.47
78212;SHT31;67490;52.086;5.122;2023-12-14T11:55:44;12.97;53.66
78212;SHT31;67490;52.086;5.122;2023-12-14T11:58:32;13.00;53.84
78212;SHT31;67490;52.086;5.122;2023-12-14T12:01:20;13.00;54.09
78212;SHT31;67490;52.086;5.122;2023-12-14T12:04:10;12.98;53.71
78212;SHT31;67490;52.086;5.122;2023-12-14T12:07:00;13.02;55.62
78212;SHT31;67490;52.086;5.122;2023-12-14T12:09:47;13.07;55.61
78212;SHT31;67490;52.086;5.122;2023-12-14T12:12:33;13.21;55.99
78212;SHT31;67490;52.086;5.122;2023-12-14T12:15:18;13.12;54.93
78212;SHT31;67490;52.086;5.122;2023-12-14T12:18:06;13.08;53.78
78212;SHT31;67490;52.086;5.122;2023-12-14T12:20:51;13.07;53.47
78212;SHT31;67490;52.086;5.122;2023-12-14T12:23:37;12.90;53.78
78212;SHT31;67490;52.086;5.122;2023-12-14T12:26:21;12.83;54.37
78212;SHT31;67490;52.086;5.122;2023-12-14T12:29:06;12.83;55.04
78212;SHT31;67490;52.086;5.122;2023-12-14T12:31:51;12.90;55.13
78212;SHT31;67490;52.086;5.122;2023-12-14T12:34:37;12.83;54.66
78212;SHT31;67490;52.086;5.122;2023-12-14T12:37:21;12.74;55.07
78212;SHT31;67490;52.086;5.122;2023-12-14T12:40:07;12.67;54.92
78212;SHT31;67490;52.086;5.122;2023-12-14T12:42:53;12.70;55.39
78212;SHT31;67490;52.086;5.122;2023-12-14T12:45:37;12.74;55.02
78212;SHT31;67490;52.086;5.122;2023-12-14T12:48:22;12.74;55.36
78212;SHT31;67490;52.086;5.122;2023-12-14T12:51:07;12.83;55.47
78212;SHT31;67490;52.086;5.122;2023-12-14T12:53:52;12.83;55.45
78212;SHT31;67490;52.086;5.122;2023-12-14T12:56:36;12.79;55.68
78212;SHT31;67490;52.086;5.122;2023-12-14T12:59:21;12.77;55.82
78212;SHT31;67490;52.086;5.122;2023-12-14T13:02:06;12.77;55.69
78212;SHT31;67490;52.086;5.122;2023-12-14T13:04:50;12.71;55.59
78212;SHT31;67490;52.086;5.122;2023-12-14T13:07:37;12.64;55.59
78212;SHT31;67490;52.086;5.122;2023-12-14T13:10:21;12.65;56.23
78212;SHT31;67490;52.086;5.122;2023-12-14T13:13:11;12.77;56.21
78212;SHT31;67490;52.086;5.122;2023-12-14T13:15:57;12.65;56.36
78212;SHT31;67490;52.086;5.122;2023-12-14T13:18:41;12.63;56.71
78212;SHT31;67490;52.086;5.122;2023-12-14T13:21:26;12.54;56.47
78212;SHT31;67490;52.086;5.122;2023-12-14T13:24:12;12.36;56.88
78212;SHT31;67490;52.086;5.122;2023-12-14T13:26:56;12.33;57.53
78212;SHT31;67490;52.086;5.122;2023-12-14T13:29:40;12.28;57.83
78212;SHT31;67490;52.086;5.122;2023-12-14T13:32:25;12.46;57.74
78212;SHT31;67490;52.086;5.122;2023-12-14T13:35:09;12.42;56.71
78212;SHT31;67490;52.086;5.122;2023-12-14T13:37:53;12.57;56.91
78212;SHT31;67490;52.086;5.122;2023-12-14T13:40:39;12.61;56.42
78212;SHT31;67490;52.086;5.122;2023-12-14T13:43:24;12.59;56.83
78212;SHT31;67490;52.086;5.122;2023-12-14T13:46:08;12.57;56.41
78212;SHT31;67490;52.086;5.122;2023-12-14T13:48:53;12.56;55.94
78212;SHT31;67490;52.086;5.122;2023-12-14T13:51:37;12.47;56.22
78212;SHT31;67490;52.086;5.122;2023-12-14T13:54:21;12.40;56.39
78212;SHT31;67490;52.086;5.122;2023-12-14T13:57:07;12.40;56.41
78212;SHT31;67490;52.086;5.122;2023-12-14T13:59:53;12.32;56.37
78212;SHT31;67490;52.086;5.122;2023-12-14T14:02:37;12.22;56.62
78212;SHT31;67490;52.086;5.122;2023-12-14T14:05:22;12.19;57.23
78212;SHT31;67490;52.086;5.122;2023-12-14T14:08:06;12.26;57.00
78212;SHT31;67490;52.086;5.122;2023-12-14T14:10:50;12.29;57.30
78212;SHT31;67490;52.086;5.122;2023-12-14T14:13:36;12.30;57.46
78212;SHT31;67490;52.086;5.122;2023-12-14T14:16:21;12.32;57.11
78212;SHT31;67490;52.086;5.122;2023-12-14T14:19:05;12.42;57.40
78212;SHT31;67490;52.086;5.122;2023-12-14T14:21:50;12.54;56.98
78212;SHT31;67490;52.086;5.122;2023-12-14T14:24:35;12.83;56.25
78212;SHT31;67490;52.086;5.122;2023-12-14T14:27:19;12.79;55.76
78212;SHT31;67490;52.086;5.122;2023-12-14T14:30:06;12.85;55.52
78212;SHT31;67490;52.086;5.122;2023-12-14T14:32:51;12.90;56.48
78212;SHT31;67490;52.086;5.122;2023-12-14T14:35:35;12.92;56.51
78212;SHT31;67490;52.086;5.122;2023-12-14T14:38:21;12.84;55.93
78212;SHT31;67490;52.086;5.122;2023-12-14T14:41:05;12.68;55.60
78212;SHT31;67490;52.086;5.122;2023-12-14T14:43:50;12.60;56.31
78212;SHT31;67490;52.086;5.122;2023-12-14T14:46:36;12.60;56.35
78212;SHT31;67490;52.086;5.122;2023-12-14T14:49:20;12.67;55.94
78212;SHT31;67490;52.086;5.122;2023-12-14T14:52:06;12.68;56.37
78212;SHT31;67490;52.086;5.122;2023-12-14T14:54:50;12.79;56.27
78212;SHT31;67490;52.086;5.122;2023-12-14T14:57:35;12.80;56.23
78212;SHT31;67490;52.086;5.122;2023-12-14T15:00:19;12.73;56.42
78212;SHT31;67490;52.086;5.122;2023-12-14T15:03:06;12.76;56.74
78212;SHT31;67490;52.086;5.122;2023-12-14T15:05:53;12.76;56.93
78212;SHT31;67490;52.086;5.122;2023-12-14T15:08:37;12.57;57.88
78212;SHT31;67490;52.086;5.122;2023-12-14T15:11:22;12.49;58.80
78212;SHT31;67490;52.086;5.122;2023-12-14T15:14:07;12.34;59.55
78212;SHT31;67490;52.086;5.122;2023-12-14T15:16:51;12.32;60.34
78212;SHT31;67490;52.086;5.122;2023-12-14T15:19:37;12.28;60.83
78212;SHT31;67490;52.086;5.122;2023-12-14T15:22:22;12.18;61.35
78212;SHT31;67490;52.086;5.122;2023-12-14T15:25:07;12.30;61.52
78212;SHT31;67490;52.086;5.122;2023-12-14T15:27:51;12.33;61.48
78212;SHT31;67490;52.086;5.122;2023-12-14T15:30:36;12.40;61.37
78212;SHT31;67490;52.086;5.122;2023-12-14T15:33:20;12.33;61.90
78212;SHT31;67490;52.086;5.122;2023-12-14T15:36:07;12.29;62.76
78212;SHT31;67490;52.086;5.122;2023-12-14T15:38:52;12.34;62.41
78212;SHT31;67490;52.086;5.122;2023-12-14T15:41:36;12.32;62.88
78212;SHT31;67490;52.086;5.122;2023-12-14T15:44:21;12.50;62.08
78212;SHT31;67490;52.086;5.122;2023-12-14T15:47:05;12.53;62.17
78212;SHT31;67490;52.086;5.122;2023-12-14T15:49:50;12.60;62.05
78212;SHT31;67490;52.086;5.122;2023-12-14T15:52:36;12.70;61.68
78212;SHT31;67490;52.086;5.122;2023-12-14T15:55:20;12.73;61.38
78212;SHT31;67490;52.086;5.122;2023-12-14T15:58:08;12.73;61.24
78212;SHT31;67490;52.086;5.122;2023-12-14T16:00:55;12.70;61.59
78212;SHT31;67490;52.086;5.122;2023-12-14T16:03:40;12.77;61.60
78212;SHT31;67490;52.086;5.122;2023-12-14T16:06:24;12.79;61.30
78212;SHT31;67490;52.086;5.122;2023-12-14T16:09:10;12.79;60.93
78212;SHT31;67490;52.086;5.122;2023-12-14T16:11:54;12.74;61.47
78212;SHT31;67490;52.086;5.122;2023-12-14T16:14:39;12.77;61.27
78212;SHT31;67490;52.086;5.122;2023-12-14T16:17:24;12.88;60.91
78212;SHT31;67490;52.086;5.122;2023-12-14T16:20:09;12.88;60.18
78212;SHT31;67490;52.086;5.122;2023-12-14T16:22:53;12.90;60.14
78212;SHT31;67490;52.086;5.122;2023-12-14T16:25:39;12.88;59.76
78212;SHT31;67490;52.086;5.122;2023-12-14T16:28:23;12.87;59.83
78212;SHT31;67490;52.086;5.122;2023-12-14T16:31:08;12.90;60.06
78212;SHT31;67490;52.086;5.122;2023-12-14T16:33:53;12.92;60.13
78212;SHT31;67490;52.086;5.122;2023-12-14T16:36:37;12.95;59.66
78212;SHT31;67490;52.086;5.122;2023-12-14T16:39:22;12.90;59.40
78212;SHT31;67490;52.086;5.122;2023-12-14T16:42:10;12.85;60.05
78212;SHT31;67490;52.086;5.122;2023-12-14T16:44:54;12.87;60.13
78212;SHT31;67490;52.086;5.122;2023-12-14T16:47:39;12.94;60.16
78212;SHT31;67490;52.086;5.122;2023-12-14T16:50:25;12.97;59.93
78212;SHT31;67490;52.086;5.122;2023-12-14T16:53:09;12.88;60.14
78212;SHT31;67490;52.086;5.122;2023-12-14T16:55:55;12.90;60.05
78212;SHT31;67490;52.086;5.122;2023-12-14T16:58:44;12.84;60.23
78212;SHT31;67490;52.086;5.122;2023-12-14T17:01:29;12.98;60.57
78212;SHT31;67490;52.086;5.122;2023-12-14T17:04:13;13.01;59.60
78212;SHT31;67490;52.086;5.122;2023-12-14T17:06:58;13.00;59.93
78212;SHT31;67490;52.086;5.122;2023-12-14T17:09:42;13.01;60.20
78212;SHT31;67490;52.086;5.122;2023-12-14T17:12:26;13.02;60.31
78212;SHT31;67490;52.086;5.122;2023-12-14T17:15:13;13.09;60.29
78212;SHT31;67490;52.086;5.122;2023-12-14T17:17:58;13.21;59.70
78212;SHT31;67490;52.086;5.122;2023-12-14T17:20:42;13.19;59.64
78212;SHT31;67490;52.086;5.122;2023-12-14T17:23:27;13.21;59.80
78212;SHT31;67490;52.086;5.122;2023-12-14T17:26:12;13.23;59.70